Douglas Observed Data For Previous 48 Hours

Caption
Day and Hour Reservoir Elevation (behind dam)* Tailwater Elevation (below dam)* Average Hourly Discharge*
11/11/2018 2 AM EST 967.42 871.87 4,722
11/11/2018 3 AM EST 967.45 869.84 61
11/11/2018 4 AM EST 967.47 869.14 0
11/11/2018 5 AM EST 967.51 868.85 0
11/11/2018 6 AM EST 967.52 871.12 4,636
11/11/2018 7 AM EST 967.52 873.28 8,918
11/11/2018 8 AM EST 967.48 874.89 13,586
11/11/2018 9 AM EST 967.46 874.93 13,591
11/11/2018 10 AM EST 967.42 874.91 13,551
11/11/2018 11 AM EST 967.40 874.94 13,598
11/11/2018 12 PM EST 967.35 874.94 13,602
11/11/2018 1 PM EST 967.34 874.90 13,567
11/11/2018 2 PM EST 967.34 873.59 9,088
11/11/2018 3 PM EST 967.34 871.84 4,738
11/11/2018 4 PM EST 967.34 871.65 4,665
11/11/2018 5 PM EST 967.36 871.64 4,683
11/11/2018 6 PM EST 967.36 873.31 9,089
11/11/2018 7 PM EST 967.36 873.63 9,141
11/11/2018 8 PM EST 967.31 874.90 13,629
11/11/2018 9 PM EST 967.30 874.97 13,657
11/11/2018 10 PM EST 967.26 875.03 13,654
11/11/2018 11 PM EST 967.24 874.93 13,607
11/12/2018 12 AM EST 967.22 873.62 9,128
11/12/2018 1 AM EST 967.24 871.91 4,735
11/12/2018 2 AM EST 967.26 871.66 4,655
11/12/2018 3 AM EST 967.27 871.62 4,663
11/12/2018 4 AM EST 967.29 871.55 4,657
11/12/2018 5 AM EST 967.29 871.62 4,674
11/12/2018 6 AM EST 967.27 873.40 9,056
11/12/2018 7 AM EST 967.25 874.82 13,487
11/12/2018 8 AM EST 967.22 874.97 13,627
11/12/2018 9 AM EST 967.20 875.01 13,628
11/12/2018 10 AM EST 967.17 874.98 13,600
11/12/2018 11 AM EST 967.14 874.90 13,582
11/12/2018 12 PM EST 967.12 874.94 13,610
11/12/2018 1 PM EST 967.11 874.96 13,623
11/12/2018 2 PM EST 967.08 874.96 13,630
11/12/2018 3 PM EST 967.07 875.00 13,638
11/12/2018 4 PM EST 967.10 872.04 4,845
11/12/2018 5 PM EST 967.14 869.88 59
11/12/2018 6 PM EST 967.16 869.17 0
11/12/2018 7 PM EST 967.21 870.44 676
11/12/2018 8 PM EST 967.28 869.73 2,414
11/12/2018 9 PM EST 967.28 869.06 0
11/12/2018 10 PM EST 967.29 868.71 0
11/12/2018 11 PM EST 967.31 868.92 62
11/13/2018 12 AM EST 967.39 869.50 2,469
11/13/2018 1 AM EST 967.44 868.92 0
11/13/2018 2 AM EST 967.48 868.64 0
11/13/2018 3 AM EST 967.53 868.90 67
11/13/2018 4 AM EST 967.64 869.51 2,483
11/13/2018 5 AM EST 967.74 868.94 0
11/13/2018 6 AM EST 967.81 868.64 0
11/13/2018 7 AM EST 967.89 868.88 66
11/13/2018 8 AM EST 968.01 871.05 4,721
11/13/2018 9 AM EST 968.08 873.41 9,102
11/13/2018 10 AM EST 968.12 874.88 13,549
11/13/2018 11 AM EST 968.14 874.98 13,638

Elevations are in feet above sea level. Discharges are in cubic feet per second and are reported at the end of the hour.